Time;durP1;ratioP1;P1;durP2;ratioP2;P2;SDS_P1;SDS_P2;PMS_P1;PMS_P2;Temp;Humidity;BMP_temperature;BMP_pressure;BME280_temperature;BME280_humidity;BME280_pressure;Samples;Min_cycle;Max_cycle;Signal;HPM_P1;HPM_P2
2023/01/09 00:02:22;;;;;;;3.60;1.40;;;;;;;5.48;100.00;99133.69;5981431;29;20279;-76
2023/01/09 00:05:17;;;;;;;4.57;1.50;;;;;;;5.48;100.00;99141.59;5982275;29;20070;-76
2023/01/09 00:08:13;;;;;;;2.58;1.23;;;;;;;5.33;100.00;99111.56;5982842;29;20275;-77
2023/01/09 00:11:08;;;;;;;2.10;1.10;;;;;;;5.39;100.00;99116.22;5982291;28;20062;-77
2023/01/09 00:14:03;;;;;;;3.30;1.50;;;;;;;5.52;100.00;99118.47;5982208;29;20270;-77
2023/01/09 00:16:59;;;;;;;2.88;1.50;;;;;;;5.52;100.00;99126.34;5981638;29;20291;-78
2023/01/09 00:19:54;;;;;;;6.20;1.70;;;;;;;5.43;100.00;99107.06;5980869;28;20058;-76
2023/01/09 00:22:49;;;;;;;4.57;1.50;;;;;;;5.43;100.00;99096.53;5980027;29;20406;-76
2023/01/09 00:25:46;;;;;;;4.53;2.00;;;;;;;5.37;100.00;99081.38;5980245;29;20054;-78
2023/01/09 00:28:41;;;;;;;3.23;1.50;;;;;;;5.40;100.00;99070.56;5979958;28;20043;-77
2023/01/09 00:31:36;;;;;;;2.60;1.60;;;;;;;5.54;100.00;99077.06;5979782;29;20038;-75
2023/01/09 00:34:36;;;;;;;6.60;1.73;;;;;;;5.61;100.00;99078.91;5978713;28;20114;-75
2023/01/09 00:37:31;;;;;;;2.33;1.30;;;;;;;5.82;100.00;99052.22;5962279;29;20027;-76
2023/01/09 00:40:27;;;;;;;2.37;1.40;;;;;;;6.06;100.00;99048.94;5979360;29;20169;-77
2023/01/09 00:43:27;;;;;;;4.40;1.58;;;;;;;6.12;100.00;99058.81;5978652;29;20394;-75
2023/01/09 00:46:28;;;;;;;4.72;1.60;;;;;;;6.13;100.00;99057.84;5989535;28;20043;-75
2023/01/09 00:49:23;;;;;;;3.13;1.60;;;;;;;6.11;99.81;99060.63;5979457;29;20100;-76
2023/01/09 00:52:19;;;;;;;4.60;1.80;;;;;;;6.21;99.49;99052.59;5978438;29;20027;-74
2023/01/09 00:55:15;;;;;;;3.92;1.95;;;;;;;6.25;99.37;99069.75;5961954;29;20098;-76
2023/01/09 00:58:10;;;;;;;3.45;1.65;;;;;;;6.22;99.23;99062.16;5965090;29;20438;-76
2023/01/09 01:01:06;;;;;;;3.03;1.38;;;;;;;6.12;99.38;99054.38;5979149;29;20397;-76
2023/01/09 01:07:37;;;;;;;9.97;2.10;;;;;;;6.13;99.21;99047.31;5978751;29;20071;-75
2023/01/09 01:10:30;;;;;;;4.10;1.60;;;;;;;6.19;98.81;99051.94;5978663;29;20035;-76
2023/01/09 01:13:26;;;;;;;5.23;1.40;;;;;;;6.27;99.08;99051.97;5978428;29;20028;-74
2023/01/09 01:16:21;;;;;;;4.53;1.50;;;;;;;6.29;98.50;99048.19;5979093;29;20046;-74
2023/01/09 01:19:16;;;;;;;3.40;1.80;;;;;;;6.33;98.17;99040.81;5978820;29;20042;-73
2023/01/09 01:22:12;;;;;;;3.60;1.70;;;;;;;6.33;97.96;99038.19;5977922;28;20042;-75
2023/01/09 01:25:08;;;;;;;8.30;2.70;;;;;;;6.38;97.73;99041.16;5979024;29;20063;-76
2023/01/09 01:28:04;;;;;;;3.67;1.80;;;;;;;6.40;97.97;99049.72;5978659;29;20039;-75
2023/01/09 01:31:00;;;;;;;3.90;1.67;;;;;;;6.26;97.95;99031.88;5979160;29;20062;-75
2023/01/09 01:33:56;;;;;;;4.68;1.70;;;;;;;6.22;98.89;99043.72;5977663;29;20035;-75
2023/01/09 01:36:51;;;;;;;3.78;1.80;;;;;;;6.22;99.06;99046.38;5978641;29;20039;-75
2023/01/09 01:39:47;;;;;;;5.00;1.77;;;;;;;6.20;99.48;99062.31;5978902;29;20050;-75
2023/01/09 01:42:50;;;;;;;3.90;1.38;;;;;;;6.23;98.79;99061.16;5977949;29;20458;-75
2023/01/09 01:45:46;;;;;;;3.38;1.63;;;;;;;6.19;98.27;99057.22;5978896;28;20074;-75
2023/01/09 01:48:41;;;;;;;4.07;1.30;;;;;;;6.09;98.89;99057.31;5983086;29;20460;-76
2023/01/09 01:51:41;;;;;;;4.87;1.07;;;;;;;5.93;99.45;99042.28;5982823;29;20038;-75
2023/01/09 01:54:37;;;;;;;3.03;1.52;;;;;;;5.89;100.00;99046.25;5965058;29;20035;-74
2023/01/09 01:57:33;;;;;;;4.28;1.10;;;;;;;5.76;100.00;99043.16;5982165;28;20038;-74
2023/01/09 02:00:31;;;;;;;1.92;1.10;;;;;;;5.62;100.00;99037.69;5965376;29;20043;-74
2023/01/09 02:03:27;;;;;;;2.60;1.30;;;;;;;5.59;100.00;99041.44;5964879;29;20167;-75
2023/01/09 02:06:23;;;;;;;3.53;1.65;;;;;;;5.63;100.00;99040.13;5982884;29;20027;-73
2023/01/09 02:09:21;;;;;;;3.08;1.55;;;;;;;5.66;100.00;99046.88;5964747;29;20035;-74
2023/01/09 02:12:25;;;;;;;3.08;1.60;;;;;;;5.60;nan;99040.44;5982078;28;20122;-74
2023/01/09 02:15:20;;;;;;;5.68;1.50;;;;;;;5.43;100.00;99011.59;5982485;29;20082;-74
2023/01/09 02:18:43;;;;;;;4.38;1.63;;;;;;;5.54;100.00;99041.09;5982280;29;20114;-74
2023/01/09 02:21:49;;;;;;;3.25;1.48;;;;;;;5.40;100.00;99023.25;5976722;28;20050;-75
2023/01/09 02:24:56;;;;;;;2.97;1.60;;;;;;;5.48;100.00;99035.63;5964898;29;20035;-76
2023/01/09 02:28:17;;;;;;;4.78;2.03;;;;;;;5.47;100.00;99034.78;5961735;29;20046;-75
2023/01/09 02:31:35;;;;;;;6.43;1.52;;;;;;;5.34;100.00;99000.22;5982327;29;20507;-73
2023/01/09 02:35:01;;;;;;;4.07;2.17;;;;;;;5.33;100.00;99004.63;5964312;29;20077;-74
2023/01/09 02:38:18;;;;;;;4.90;2.20;;;;;;;5.43;100.00;99019.50;5965031;29;20027;-73
2023/01/09 02:41:19;;;;;;;4.28;2.10;;;;;;;5.29;100.00;98994.59;5977870;29;20094;-76
2023/01/09 02:44:20;;;;;;;;;;;;;;;5.41;100.00;99009.13;5981850;29;20513;-74
2023/01/09 02:47:15;;;;;;;3.90;1.88;;;;;;;5.41;100.00;99003.84;5981651;29;20065;-75
2023/01/09 02:50:19;;;;;;;4.50;1.90;;;;;;;5.36;100.00;98990.38;5981339;29;20035;-73
2023/01/09 02:53:23;;;;;;;5.20;2.50;;;;;;;5.43;100.00;98991.41;5980761;29;20039;-75
2023/01/09 02:56:30;;;;;;;5.68;2.38;;;;;;;5.37;100.00;98977.09;5981650;28;20031;-77
2023/01/09 02:59:34;;;;;;;5.93;2.35;;;;;;;5.42;100.00;98979.22;5970143;28;20121;-74
2023/01/09 03:02:41;;;;;;;8.10;2.67;;;;;;;5.19;100.00;98929.00;5984222;28;20039;-74
2023/01/09 03:05:49;;;;;;;5.45;2.40;;;;;;;5.48;100.00;98962.84;5964173;29;20027;-76
2023/01/09 03:08:48;;;;;;;5.50;2.80;;;;;;;5.55;100.00;98966.47;5963913;29;20039;-73
2023/01/09 03:11:50;;;;;;;7.32;3.15;;;;;;;5.55;100.00;98965.66;5963900;29;20036;-74
2023/01/09 03:14:48;;;;;;;5.55;2.88;;;;;;;5.65;100.00;98984.78;5981480;29;20422;-75
2023/01/09 03:17:46;;;;;;;6.25;3.80;;;;;;;5.68;100.00;98979.22;5963908;29;20037;-74
2023/01/09 03:20:41;;;;;;;7.03;3.85;;;;;;;5.58;100.00;98957.47;5963321;29;20046;-74
2023/01/09 03:23:55;;;;;;;7.37;3.57;;;;;;;5.68;100.00;98979.22;5980121;29;20031;-74
2023/01/09 03:26:53;;;;;;;8.05;3.95;;;;;;;5.61;100.00;98965.88;5980461;29;20283;-76
2023/01/09 03:29:48;;;;;;;7.65;3.80;;;;;;;5.56;100.00;98956.78;5963878;29;20039;-76
2023/01/09 03:32:43;;;;;;;7.97;4.25;;;;;;;5.57;100.00;98947.94;5979732;29;20086;-73
2023/01/09 03:35:39;;;;;;;8.07;4.03;;;;;;;5.63;100.00;98949.91;5980569;29;20043;-74
2023/01/09 03:38:34;;;;;;;8.73;3.37;;;;;;;5.68;100.00;98947.66;5980655;29;20113;-75
2023/01/09 03:41:30;;;;;;;7.45;3.83;;;;;;;5.65;100.00;98937.47;5980171;29;20031;-73
2023/01/09 03:44:25;;;;;;;8.15;4.10;;;;;;;5.71;100.00;98940.25;5979157;29;20031;-74
2023/01/09 03:47:20;;;;;;;7.63;4.03;;;;;;;5.66;100.00;98923.31;5980366;29;20035;-75
2023/01/09 03:50:15;;;;;;;7.20;3.80;;;;;;;5.79;100.00;98935.03;5980120;28;20478;-75
2023/01/09 03:53:12;;;;;;;10.73;4.10;;;;;;;5.76;100.00;98934.53;5979819;29;20035;-74
2023/01/09 03:56:07;;;;;;;8.73;4.25;;;;;;;5.76;100.00;98930.09;5962606;29;20031;-75
2023/01/09 03:59:02;;;;;;;6.33;3.67;;;;;;;5.75;100.00;98912.69;5979864;29;20471;-76
2023/01/09 04:01:57;;;;;;;6.37;3.50;;;;;;;5.86;100.00;98930.00;5979071;28;20427;-75
2023/01/09 04:04:53;;;;;;;7.40;3.73;;;;;;;5.87;100.00;98914.03;5979807;29;20180;-75
2023/01/09 04:07:48;;;;;;;12.40;3.50;;;;;;;5.86;100.00;98912.41;5980293;29;20039;-75
2023/01/09 04:10:45;;;;;;;7.35;3.78;;;;;;;6.02;100.00;98929.22;5978913;29;20498;-76
2023/01/09 04:13:40;;;;;;;7.90;3.58;;;;;;;5.98;100.00;98921.63;5979019;29;20066;-76
2023/01/09 04:16:35;;;;;;;8.47;3.53;;;;;;;5.94;100.00;98911.59;5979769;29;20039;-76
2023/01/09 04:19:30;;;;;;;5.33;3.23;;;;;;;5.99;100.00;98912.75;5979961;28;20042;-76
2023/01/09 04:22:26;;;;;;;6.77;3.23;;;;;;;6.11;100.00;98933.50;5979348;29;20122;-75
2023/01/09 04:25:21;;;;;;;7.77;3.10;;;;;;;6.13;100.00;98936.78;5979597;29;20537;-76
2023/01/09 04:28:16;;;;;;;8.97;2.90;;;;;;;6.01;100.00;98912.59;5979379;28;20027;-75
2023/01/09 04:31:12;;;;;;;6.10;2.33;;;;;;;6.06;100.00;98935.81;5979132;29;20671;-75
2023/01/09 04:34:07;;;;;;;7.63;2.70;;;;;;;6.04;100.00;98928.06;5979104;29;20071;-75
2023/01/09 04:37:02;;;;;;;5.27;2.50;;;;;;;6.02;100.00;98913.41;5979511;29;20039;-75
2023/01/09 04:39:58;;;;;;;6.00;2.43;;;;;;;6.05;100.00;98927.09;5979197;29;20042;-74
2023/01/09 04:42:53;;;;;;;5.47;2.10;;;;;;;6.05;100.00;98918.38;5978744;29;20030;-75
2023/01/09 04:45:48;;;;;;;4.73;2.33;;;;;;;6.08;100.00;98934.66;5978742;29;20039;-74
2023/01/09 04:48:43;;;;;;;8.90;3.27;;;;;;;5.99;100.00;98915.41;5979784;29;20126;-76
2023/01/09 04:51:39;;;;;;;8.80;4.23;;;;;;;5.96;100.00;98915.72;5979446;29;20620;-76
2023/01/09 04:54:34;;;;;;;10.33;5.13;;;;;;;5.94;100.00;98906.34;5978379;29;20035;-74
2023/01/09 04:57:29;;;;;;;10.77;4.95;;;;;;;6.05;100.00;98931.50;5978959;29;20723;-76
2023/01/09 05:00:25;;;;;;;9.73;4.60;;;;;;;5.91;100.00;98918.00;5979196;29;20043;-74
2023/01/09 05:03:20;;;;;;;10.07;4.77;;;;;;;6.01;100.00;98938.09;5978243;28;20062;-75
2023/01/09 05:06:15;;;;;;;14.40;5.17;;;;;;;6.01;100.00;98944.16;5979115;29;20039;-75
2023/01/09 05:09:11;;;;;;;10.73;5.03;;;;;;;5.89;100.00;98934.94;5979693;29;20507;-75
2023/01/09 05:12:06;;;;;;;12.57;4.87;;;;;;;5.96;100.00;98939.38;5978605;29;20054;-75
2023/01/09 05:15:02;;;;;;;9.63;5.10;;;;;;;5.99;100.00;98948.78;5978997;29;20106;-75
2023/01/09 05:17:58;;;;;;;10.18;3.70;;;;;;;5.95;100.00;98935.09;5961405;29;20475;-75
2023/01/09 05:20:53;;;;;;;7.67;2.23;;;;;;;6.10;100.00;98964.25;5981151;28;20094;-76
2023/01/09 05:23:48;;;;;;;3.10;1.73;;;;;;;6.06;100.00;98946.34;5983038;29;20122;-76
2023/01/09 05:26:44;;;;;;;2.45;1.20;;;;;;;6.08;100.00;98949.63;5976492;29;20383;-76
2023/01/09 05:29:39;;;;;;;3.60;1.47;;;;;;;6.18;100.00;98955.56;5977964;29;20047;-76
2023/01/09 05:32:34;;;;;;;3.03;1.40;;;;;;;6.18;100.00;98959.00;5982754;29;20039;-77
2023/01/09 05:35:30;;;;;;;2.77;1.30;;;;;;;6.24;100.00;98961.00;5982855;29;20049;-75
2023/01/09 05:38:25;;;;;;;2.83;1.23;;;;;;;6.16;100.00;98957.53;5983473;29;20454;-75
2023/01/09 05:41:20;;;;;;;2.40;1.17;;;;;;;6.24;100.00;98978.59;5982793;29;20042;-76
2023/01/09 05:44:16;;;;;;;5.13;1.50;;;;;;;6.14;100.00;98956.88;5982484;29;20037;-76
2023/01/09 05:47:11;;;;;;;3.70;1.33;;;;;;;6.08;100.00;98945.19;5983234;29;20036;-75
2023/01/09 05:50:06;;;;;;;2.30;1.23;;;;;;;6.26;100.00;98987.16;5982194;29;20030;-76
2023/01/09 05:53:02;;;;;;;3.53;1.55;;;;;;;6.27;100.00;98992.28;5982742;29;20038;-75
2023/01/09 05:55:57;;;;;;;3.03;1.50;;;;;;;6.14;100.00;98970.84;5983023;29;20071;-75
2023/01/09 05:58:52;;;;;;;2.33;1.53;;;;;;;6.15;100.00;98992.72;5983255;29;20062;-74
2023/01/09 06:01:48;;;;;;;2.60;1.30;;;;;;;6.13;100.00;98978.91;5982634;29;20415;-75
2023/01/09 06:04:43;;;;;;;2.63;1.50;;;;;;;6.21;100.00;98997.34;5982429;28;20042;-76
2023/01/09 06:07:39;;;;;;;3.47;1.70;;;;;;;6.17;100.00;98986.31;5982962;29;20043;-76
2023/01/09 06:10:34;;;;;;;5.65;2.00;;;;;;;6.23;100.00;99000.63;5982743;29;20298;-75
2023/01/09 06:13:30;;;;;;;4.47;1.90;;;;;;;6.12;100.00;98985.97;5981894;29;20042;-76
2023/01/09 06:16:25;;;;;;;2.60;1.47;;;;;;;6.08;100.00;98989.09;5981994;29;20039;-77
2023/01/09 06:19:20;;;;;;;3.90;1.80;;;;;;;6.15;100.00;98995.34;5982289;28;20364;-76
2023/01/09 06:22:15;;;;;;;3.83;1.57;;;;;;;5.99;100.00;98983.78;5981806;29;20054;-76
2023/01/09 06:25:11;;;;;;;2.70;1.53;;;;;;;6.02;100.00;99002.88;5982432;29;20042;-75
2023/01/09 06:28:07;;;;;;;4.35;1.52;;;;;;;6.08;100.00;99013.59;5981938;29;20038;-76
2023/01/09 06:31:02;;;;;;;3.20;1.30;;;;;;;6.04;100.00;99016.69;5981714;28;20475;-75
2023/01/09 06:33:57;;;;;;;2.15;1.20;;;;;;;5.77;100.00;98989.59;5980451;29;20032;-76
2023/01/09 06:36:53;;;;;;;4.53;1.47;;;;;;;5.96;100.00;99015.69;5977157;29;20471;-76
2023/01/09 06:39:48;;;;;;;5.07;1.90;;;;;;;6.01;100.00;99027.56;5981407;29;20031;-74
2023/01/09 06:42:44;;;;;;;2.30;1.40;;;;;;;6.05;100.00;99037.59;5981461;29;20090;-75
2023/01/09 06:45:41;;;;;;;2.95;1.35;;;;;;;6.03;100.00;99036.09;5981578;29;20042;-76
2023/01/09 06:48:37;;;;;;;4.75;1.95;;;;;;;5.74;100.00;99000.44;5981579;29;20047;-76
2023/01/09 06:51:32;;;;;;;3.87;1.80;;;;;;;5.92;100.00;99018.78;5981946;29;20046;-76
2023/01/09 06:54:27;;;;;;;4.63;2.10;;;;;;;6.06;100.00;99062.09;5980906;29;20106;-76
2023/01/09 06:57:22;;;;;;;4.73;1.83;;;;;;;6.09;100.00;99059.94;5981276;29;20043;-77
2023/01/09 07:00:18;;;;;;;3.73;1.93;;;;;;;6.08;100.00;99060.13;5981508;29;20042;-76
2023/01/09 07:03:18;;;;;;;4.47;2.30;;;;;;;5.94;100.00;99049.22;5980878;29;20043;-76
2023/01/09 07:06:14;;;;;;;4.43;2.10;;;;;;;5.86;100.00;99049.19;5989392;28;20035;-76
2023/01/09 07:09:12;;;;;;;3.95;2.25;;;;;;;5.83;100.00;99052.09;5964158;29;20070;-76
2023/01/09 07:12:07;;;;;;;4.85;2.30;;;;;;;5.80;100.00;99068.19;5980134;29;20085;-76
2023/01/09 07:15:03;;;;;;;7.37;2.70;;;;;;;5.67;100.00;99062.53;5963879;29;20035;-76
2023/01/09 07:17:58;;;;;;;5.15;2.78;;;;;;;5.67;100.00;99080.94;5980933;29;20155;-75
2023/01/09 07:20:53;;;;;;;6.23;2.80;;;;;;;5.59;100.00;99075.63;5981102;28;20471;-76
2023/01/09 07:23:49;;;;;;;6.77;2.70;;;;;;;5.59;100.00;99096.66;5980435;29;20283;-76
2023/01/09 07:26:44;;;;;;;5.73;3.23;;;;;;;5.50;100.00;99097.56;5972490;29;20321;-77
2023/01/09 07:29:39;;;;;;;8.27;3.07;;;;;;;5.45;100.00;99104.25;5974713;29;20038;-75
2023/01/09 07:32:35;;;;;;;5.67;2.67;;;;;;;5.40;100.00;99110.81;5978780;29;20051;-76
2023/01/09 07:35:30;;;;;;;5.17;2.60;;;;;;;5.33;100.00;99103.66;5979881;29;20046;-76
2023/01/09 07:38:25;;;;;;;5.25;2.80;;;;;;;5.31;100.00;99110.88;5979534;29;20290;-76
2023/01/09 07:41:21;;;;;;;5.72;2.90;;;;;;;5.34;100.00;99123.72;5979832;29;20114;-75
2023/01/09 07:44:16;;;;;;;9.00;2.87;;;;;;;5.15;100.00;99110.75;5975219;28;20031;-77
2023/01/09 07:47:11;;;;;;;6.00;2.77;;;;;;;5.21;100.00;99126.75;5980437;29;20479;-74
2023/01/09 07:50:08;;;;;;;5.10;2.60;;;;;;;5.09;100.00;99124.50;5980762;29;20611;-76
2023/01/09 07:53:03;;;;;;;6.45;2.40;;;;;;;5.06;100.00;99144.00;5980120;29;20038;-77
2023/01/09 07:55:58;;;;;;;5.97;2.97;;;;;;;4.97;100.00;99130.97;5982094;28;20066;-76
2023/01/09 07:58:53;;;;;;;6.97;2.97;;;;;;;4.97;100.00;99146.72;5977596;28;20035;-75
2023/01/09 08:01:49;;;;;;;7.33;2.93;;;;;;;4.94;100.00;99144.38;5977730;28;20024;-77
2023/01/09 08:04:44;;;;;;;8.03;3.53;;;;;;;4.92;100.00;99141.88;5980096;28;20475;-73
2023/01/09 08:07:40;;;;;;;7.10;3.27;;;;;;;5.04;100.00;99163.53;5979731;29;20271;-77
2023/01/09 08:10:35;;;;;;;9.23;4.03;;;;;;;4.97;100.00;99162.47;5979313;29;20279;-76
2023/01/09 08:13:31;;;;;;;10.37;3.77;;;;;;;4.90;100.00;99164.03;5978635;29;20039;-76
2023/01/09 08:16:26;;;;;;;9.37;4.10;;;;;;;4.86;100.00;99160.06;5961691;29;20434;-76
2023/01/09 08:19:22;;;;;;;7.90;3.90;;;;;;;4.81;100.00;99158.69;5978662;28;20687;-76
2023/01/09 08:22:18;;;;;;;9.70;4.05;;;;;;;4.81;100.00;99163.94;5978074;29;20039;-76
2023/01/09 08:25:13;;;;;;;12.70;4.03;;;;;;;4.72;100.00;99143.00;5976863;28;20069;-76
2023/01/09 08:28:08;;;;;;;8.80;4.30;;;;;;;4.86;100.00;99170.56;5980145;29;20271;-78
2023/01/09 08:31:04;;;;;;;12.80;5.97;;;;;;;4.92;100.00;99170.78;5971908;29;20047;-76
2023/01/09 08:33:59;;;;;;;10.43;4.27;;;;;;;5.01;100.00;99180.41;5979320;29;20031;-77
2023/01/09 08:36:54;;;;;;;11.87;4.63;;;;;;;5.27;100.00;99196.28;5979727;29;20027;-77
2023/01/09 08:39:50;;;;;;;12.20;4.73;;;;;;;5.35;100.00;99172.69;5980439;29;20049;-76
2023/01/09 08:49:13;;;;;;;9.70;3.97;;;;;;;6.01;100.00;99196.72;5980136;29;20051;-79
2023/01/09 08:52:08;;;;;;;8.70;4.10;;;;;;;6.12;100.00;99214.06;5980310;29;20043;-77
2023/01/09 08:55:04;;;;;;;7.03;3.67;;;;;;;6.26;100.00;99208.22;5981087;29;20030;-78
2023/01/09 08:57:59;;;;;;;7.05;3.50;;;;;;;6.21;100.00;99198.19;5982165;29;20364;-77
2023/01/09 09:00:55;;;;;;;6.50;3.33;;;;;;;6.33;100.00;99223.25;5968784;29;20031;-78
2023/01/09 09:03:50;;;;;;;6.35;3.75;;;;;;;5.89;99.72;99179.56;5982473;29;20046;-76
2023/01/09 09:06:46;;;;;;;8.13;3.97;;;;;;;6.07;100.00;99226.84;5983798;28;20046;-76
2023/01/09 09:09:41;;;;;;;8.43;3.27;;;;;;;5.82;100.00;99208.25;5988658;29;20027;-77
2023/01/09 09:12:36;;;;;;;9.67;4.20;;;;;;;5.92;100.00;99214.25;5987028;29;20027;-77
2023/01/09 09:15:33;;;;;;;6.47;3.73;;;;;;;6.16;100.00;99220.69;5989803;28;20046;-77
2023/01/09 09:18:28;;;;;;;8.02;3.50;;;;;;;6.31;100.00;99224.38;5986364;28;20039;-77
2023/01/09 09:21:23;;;;;;;6.73;3.63;;;;;;;6.59;100.00;99215.31;5993570;28;20043;-77
2023/01/09 09:24:19;;;;;;;5.27;3.17;;;;;;;6.79;99.72;99235.19;5994423;29;20046;-77
2023/01/09 09:27:14;;;;;;;9.07;3.50;;;;;;;6.97;97.84;99237.72;5993393;28;20035;-78
2023/01/09 09:30:11;;;;;;;11.07;3.53;;;;;;;7.13;97.05;99230.69;5998045;28;20027;-77
2023/01/09 09:33:06;;;;;;;8.73;3.45;;;;;;;6.90;95.56;99211.16;5979915;29;20107;-77
2023/01/09 09:36:01;;;;;;;6.43;3.20;;;;;;;6.99;94.96;99241.00;5994040;29;20033;-77
2023/01/09 09:38:57;;;;;;;10.70;3.87;;;;;;;7.13;95.45;99246.50;5993128;29;20035;-76
2023/01/09 09:45:59;;;;;;;11.20;2.90;;;;;;;7.25;93.65;99260.22;5969102;29;20027;-77
2023/01/09 09:49:05;;;;;;;7.88;2.28;;;;;;;7.18;94.00;99252.09;5989765;29;20035;-77
2023/01/09 09:52:27;;;;;;;5.05;2.13;;;;;;;7.17;93.78;99271.53;5990741;28;20460;-76
2023/01/09 09:55:25;;;;;;;9.20;2.55;;;;;;;7.14;93.71;99256.06;5991155;29;20035;-79
2023/01/09 09:58:27;;;;;;;4.25;1.67;;;;;;;7.13;93.50;99228.03;5990947;29;20067;-77
2023/01/09 10:01:28;;;;;;;6.55;1.85;;;;;;;7.27;90.67;99244.22;5969288;29;20035;-78
2023/01/09 10:04:26;;;;;;;4.95;1.40;;;;;;;7.40;88.88;99255.13;5964128;29;20035;-78
2023/01/09 10:07:26;;;;;;;3.90;1.40;;;;;;;7.46;90.11;99263.22;5963833;29;20394;-78
2023/01/09 10:10:28;;;;;;;6.03;1.52;;;;;;;7.40;89.42;99237.50;5967276;29;20050;-78
2023/01/09 10:16:53;;;;;;;4.80;1.42;;;;;;;7.60;88.60;99269.69;5970627;29;20035;-77
2023/01/09 10:20:04;;;;;;;3.22;1.13;;;;;;;7.65;87.90;99264.72;5982576;28;20031;-79
2023/01/09 10:23:06;;;;;;;2.60;0.82;;;;;;;7.43;86.30;99255.63;5964576;29;20387;-79
2023/01/09 10:26:15;;;;;;;4.00;1.23;;;;;;;7.42;86.60;99258.44;5982653;29;20130;-78
2023/01/09 10:29:49;;;;;;;3.28;0.98;;;;;;;7.60;86.16;99252.03;5965575;29;20067;-77
2023/01/09 10:33:26;;;;;;;2.63;1.02;;;;;;;7.71;87.20;99253.53;5981546;29;20110;-77
2023/01/09 10:36:42;;;;;;;4.00;1.20;;;;;;;7.55;85.30;99258.78;5957012;29;20110;-77
2023/01/09 10:39:42;;;;;;;1.90;0.95;;;;;;;7.59;86.39;99254.81;5981954;28;20406;-77
2023/01/09 10:42:44;;;;;;;6.85;1.20;;;;;;;7.59;86.89;99254.81;5981380;29;20031;-77
2023/01/09 10:45:45;;;;;;;5.95;1.17;;;;;;;7.71;87.67;99248.25;5964628;29;20467;-78
2023/01/09 10:48:49;;;;;;;3.95;1.15;;;;;;;7.70;85.92;99254.50;5981207;29;20043;-78
2023/01/09 10:51:49;;;;;;;3.85;1.58;;;;;;;7.84;86.80;99253.88;5977736;29;20114;-77
2023/01/09 10:55:18;;;;;;;4.10;1.40;;;;;;;7.98;85.58;99255.84;5980801;29;20042;-77
2023/01/09 10:58:17;;;;;;;2.90;1.08;;;;;;;8.22;84.94;99215.41;5956917;29;20074;-78
2023/01/09 11:01:13;;;;;;;3.63;1.15;;;;;;;8.37;82.19;99240.97;5980671;28;20035;-78
2023/01/09 11:04:30;;;;;;;3.50;0.82;;;;;;;8.55;81.06;99237.31;5980822;29;20553;-77
2023/01/09 11:07:32;;;;;;;4.88;1.50;;;;;;;8.58;81.05;99223.75;5980061;28;20031;-78
2023/01/09 11:10:57;;;;;;;1.83;0.98;;;;;;;8.57;80.63;99241.44;5979790;29;20027;-78
2023/01/09 11:14:26;;;;;;;2.25;0.75;;;;;;;8.49;80.02;99216.84;5963665;28;20070;-78
2023/01/09 11:17:25;;;;;;;1.73;0.93;;;;;;;8.55;78.84;99242.59;5981035;28;20035;-78
2023/01/09 11:20:21;;;;;;;2.65;1.00;;;;;;;8.37;80.05;99256.81;5982933;28;20047;-78
2023/01/09 11:23:31;;;;;;;4.43;1.00;;;;;;;8.01;80.91;99249.41;5983149;29;20470;-78
2023/01/09 11:26:27;;;;;;;5.63;1.05;;;;;;;8.00;81.38;99253.03;5983691;29;20071;-77
2023/01/09 11:29:25;;;;;;;2.22;0.80;;;;;;;7.99;81.05;99240.84;5984137;29;20034;-78
2023/01/09 11:32:22;;;;;;;3.10;1.30;;;;;;;8.08;81.64;99240.66;5983539;29;20043;-78
2023/01/09 11:35:30;;;;;;;1.63;0.90;;;;;;;8.07;81.02;99236.34;5965225;29;20031;-78
2023/01/09 11:38:26;;;;;;;2.65;0.68;;;;;;;8.00;82.16;99232.75;5965516;29;20035;-77
2023/01/09 11:41:23;;;;;;;1.65;0.60;;;;;;;8.16;82.01;99238.00;5963522;29;20430;-78
2023/01/09 11:44:19;;;;;;;3.10;0.75;;;;;;;8.31;82.03;99257.53;5981187;28;20367;-77
2023/01/09 11:47:38;;;;;;;5.03;0.90;;;;;;;8.26;81.75;99251.84;5974706;28;20039;-77
2023/01/09 11:50:33;;;;;;;1.98;0.77;;;;;;;8.13;81.05;99232.22;5977755;29;20098;-77
2023/01/09 11:53:41;;;;;;;1.90;0.80;;;;;;;8.15;80.61;99254.84;5976957;29;20043;-78
2023/01/09 11:56:36;;;;;;;2.63;0.60;;;;;;;8.01;80.51;99244.97;5961453;29;20175;-78
2023/01/09 11:59:32;;;;;;;4.15;0.75;;;;;;;8.12;81.52;99262.28;5980959;28;20043;-78
2023/01/09 12:03:14;;;;;;;4.30;0.70;;;;;;;8.18;81.48;99266.91;5960332;29;20035;-78
2023/01/09 12:06:27;;;;;;;3.65;0.90;;;;;;;7.96;82.57;99247.28;5909064;29;20480;-77
2023/01/09 12:09:30;;;;;;;2.85;0.68;;;;;;;7.87;83.13;99243.00;5906963;29;20055;-77
2023/01/09 12:12:34;;;;;;;2.83;0.90;;;;;;;7.91;82.75;99254.84;5960564;29;20066;-76
2023/01/09 12:15:52;;;;;;;5.45;0.95;;;;;;;7.93;82.81;99246.78;5977493;28;20047;-77
2023/01/09 12:19:15;;;;;;;2.90;0.80;;;;;;;8.00;83.47;99261.78;5977453;29;20114;-77
2023/01/09 12:22:29;;;;;;;1.92;0.80;;;;;;;7.99;82.82;99257.47;5975744;28;20569;-77
2023/01/09 12:25:28;;;;;;;1.92;0.90;;;;;;;7.99;83.35;99264.59;5960394;29;20395;-77
2023/01/09 12:28:58;;;;;;;2.97;1.00;;;;;;;7.90;84.30;99253.22;5976732;29;20058;-77
2023/01/09 12:32:14;;;;;;;2.58;1.20;;;;;;;8.02;83.97;99258.97;5959133;29;20039;-78
2023/01/09 12:35:43;;;;;;;1.95;0.82;;;;;;;8.07;83.44;99257.47;5959478;29;20046;-77
2023/01/09 12:38:54;;;;;;;0.90;0.43;;;;;;;8.08;83.62;99258.31;5961390;29;20403;-77
2023/01/09 12:42:06;;;;;;;1.77;0.60;;;;;;;8.03;83.38;99236.88;5965791;28;20517;-78
2023/01/09 12:45:32;;;;;;;1.77;0.70;;;;;;;8.20;81.72;99249.06;5956535;29;20050;-77
2023/01/09 12:48:51;;;;;;;2.75;0.80;;;;;;;8.03;83.11;99245.63;5979223;29;20118;-78
2023/01/09 12:52:05;;;;;;;3.50;1.40;;;;;;;8.12;82.86;99252.56;5963226;29;20039;-78
2023/01/09 12:55:11;;;;;;;4.70;1.00;;;;;;;8.10;82.16;99243.94;5962231;29;20122;-78
2023/01/09 12:58:24;;;;;;;3.53;0.90;;;;;;;8.15;82.41;99246.91;5966603;29;20173;-78
2023/01/09 13:01:24;;;;;;;5.65;1.10;;;;;;;8.06;81.99;99229.44;5962528;29;20089;-78
2023/01/09 13:04:30;;;;;;;1.77;0.88;;;;;;;8.04;81.48;99223.53;5961446;29;20071;-78
2023/01/09 13:07:30;;;;;;;6.40;1.00;;;;;;;8.02;81.27;99236.03;5979657;29;20076;-79
2023/01/09 13:10:29;;;;;;;1.50;0.40;;;;;;;8.03;81.65;99232.41;5962583;29;20039;-77
2023/01/09 13:13:34;;;;;;;1.45;0.63;;;;;;;8.17;81.87;99247.59;5965959;29;20118;-78
2023/01/09 13:16:32;;;;;;;2.58;0.70;;;;;;;8.05;81.97;99241.00;5978695;29;20039;-78
2023/01/09 13:19:33;;;;;;;3.10;0.80;;;;;;;8.25;81.09;99247.59;5961726;28;20039;-78
2023/01/09 13:22:28;;;;;;;;;;;;;;;8.28;81.39;99252.56;5960656;29;20043;-77
2023/01/09 13:25:39;;;;;;;1.07;0.97;;;;;;;8.17;80.91;99239.69;5979502;29;19937;-78
2023/01/09 13:28:42;;;;;;;3.92;1.15;;;;;;;8.32;80.90;99238.03;5961571;29;20505;-78
2023/01/09 13:32:04;;;;;;;0.63;0.40;;;;;;;8.33;80.71;99254.69;5979611;29;20047;-78
2023/01/09 13:35:00;;;;;;;1.48;0.80;;;;;;;8.32;80.63;99243.31;5978625;29;20122;-79
2023/01/09 13:37:55;;;;;;;1.33;0.60;;;;;;;8.23;81.63;99252.22;5979224;29;20097;-77
2023/01/09 13:42:34;;;;;;;1.90;0.63;;;;;;;8.10;82.59;99251.06;5985032;28;20036;-78
2023/01/09 13:44:18;;;;;;;2.70;0.60;;;;;;;8.15;82.47;99249.56;5972011;29;20043;-77
2023/01/09 13:47:16;;;;;;;1.75;0.60;;;;;;;8.19;82.39;99258.81;5988910;29;20486;-78
2023/01/09 13:50:25;;;;;;;1.10;0.70;;;;;;;8.20;81.38;99249.91;5969103;29;20043;-77
2023/01/09 13:53:25;;;;;;;0.95;0.55;;;;;;;8.22;81.45;99263.75;5968362;29;20393;-77
2023/01/09 13:56:21;;;;;;;1.40;0.77;;;;;;;8.02;82.36;99243.97;5989713;29;20050;-77
2023/01/09 13:59:26;;;;;;;0.90;0.47;;;;;;;8.09;81.33;99252.88;5987419;29;20043;-77
2023/01/09 14:02:34;;;;;;;2.97;0.90;;;;;;;8.17;81.41;99260.78;5987215;29;20286;-77
2023/01/09 14:05:29;;;;;;;2.38;0.57;;;;;;;8.14;80.74;99265.56;5985837;29;20051;-78
2023/01/09 14:08:26;;;;;;;2.45;0.60;;;;;;;8.18;80.52;99262.44;5987793;29;20115;-76
2023/01/09 14:11:26;;;;;;;4.47;1.35;;;;;;;8.20;80.07;99271.03;5967910;29;20035;-75
2023/01/09 14:14:26;;;;;;;1.85;0.70;;;;;;;8.14;80.34;99266.41;5986554;29;20047;-77
2023/01/09 14:17:30;;;;;;;1.65;0.60;;;;;;;8.17;79.98;99270.53;5974330;29;20090;-77
2023/01/09 14:20:37;;;;;;;1.33;0.77;;;;;;;8.22;79.74;99266.41;5970212;29;20046;-78
2023/01/09 14:23:36;;;;;;;;;;;;;;;8.30;79.40;99276.16;5967812;29;20043;-77
2023/01/09 14:26:51;;;;;;;2.38;1.33;;;;;;;7.99;79.72;99252.19;5984554;29;19965;-77
2023/01/09 14:29:47;;;;;;;0.98;0.70;;;;;;;8.14;79.89;99282.25;5984550;29;20042;-78